sensor_id;sensor_type;location;lat;lon;timestamp;P1;durP1;ratioP1;P2;durP2;ratioP2
44704;SDS011;30431;48.520;9.046;2024-03-08T00:00:21;30.73;;;19.92;;
44704;SDS011;30431;48.520;9.046;2024-03-08T00:02:48;30.75;;;20.88;;
44704;SDS011;30431;48.520;9.046;2024-03-08T00:05:17;26.70;;;19.17;;
44704;SDS011;30431;48.520;9.046;2024-03-08T00:07:44;31.08;;;19.85;;
44704;SDS011;30431;48.520;9.046;2024-03-08T00:10:12;28.70;;;19.25;;
44704;SDS011;30431;48.520;9.046;2024-03-08T00:12:42;27.70;;;19.48;;
44704;SDS011;30431;48.520;9.046;2024-03-08T00:15:13;26.30;;;19.15;;
44704;SDS011;30431;48.520;9.046;2024-03-08T00:17:44;25.73;;;18.30;;
44704;SDS011;30431;48.520;9.046;2024-03-08T00:20:15;27.73;;;19.55;;
44704;SDS011;30431;48.520;9.046;2024-03-08T00:22:45;34.50;;;20.67;;
44704;SDS011;30431;48.520;9.046;2024-03-08T00:25:14;27.80;;;19.50;;
44704;SDS011;30431;48.520;9.046;2024-03-08T00:27:44;25.95;;;19.90;;
44704;SDS011;30431;48.520;9.046;2024-03-08T00:30:11;30.63;;;20.10;;
44704;SDS011;30431;48.520;9.046;2024-03-08T00:32:41;26.83;;;19.85;;
44704;SDS011;30431;48.520;9.046;2024-03-08T00:35:09;31.42;;;20.60;;
44704;SDS011;30431;48.520;9.046;2024-03-08T00:37:36;29.00;;;19.75;;
44704;SDS011;30431;48.520;9.046;2024-03-08T00:40:03;29.30;;;20.33;;
44704;SDS011;30431;48.520;9.046;2024-03-08T00:42:33;29.65;;;20.67;;
44704;SDS011;30431;48.520;9.046;2024-03-08T00:45:01;28.42;;;19.70;;
44704;SDS011;30431;48.520;9.046;2024-03-08T00:47:28;32.47;;;20.83;;
44704;SDS011;30431;48.520;9.046;2024-03-08T00:49:55;27.45;;;19.75;;
44704;SDS011;30431;48.520;9.046;2024-03-08T00:52:23;29.67;;;20.13;;
44704;SDS011;30431;48.520;9.046;2024-03-08T00:54:53;32.00;;;20.80;;
44704;SDS011;30431;48.520;9.046;2024-03-08T00:57:21;29.73;;;20.50;;
44704;SDS011;30431;48.520;9.046;2024-03-08T01:02:15;27.95;;;20.25;;
44704;SDS011;30431;48.520;9.046;2024-03-08T01:04:45;27.25;;;20.23;;
44704;SDS011;30431;48.520;9.046;2024-03-08T01:07:13;28.92;;;20.40;;
44704;SDS011;30431;48.520;9.046;2024-03-08T01:09:40;32.38;;;20.95;;
44704;SDS011;30431;48.520;9.046;2024-03-08T01:12:07;29.08;;;21.60;;
44704;SDS011;30431;48.520;9.046;2024-03-08T01:14:35;33.38;;;21.85;;
44704;SDS011;30431;48.520;9.046;2024-03-08T01:17:02;29.70;;;20.02;;
44704;SDS011;30431;48.520;9.046;2024-03-08T01:19:31;28.17;;;20.55;;
44704;SDS011;30431;48.520;9.046;2024-03-08T01:21:59;31.88;;;21.45;;
44704;SDS011;30431;48.520;9.046;2024-03-08T01:24:26;31.92;;;21.65;;
44704;SDS011;30431;48.520;9.046;2024-03-08T01:26:53;27.90;;;19.92;;
44704;SDS011;30431;48.520;9.046;2024-03-08T01:29:21;29.73;;;20.60;;
44704;SDS011;30431;48.520;9.046;2024-03-08T01:31:51;28.80;;;19.98;;
44704;SDS011;30431;48.520;9.046;2024-03-08T01:34:20;27.88;;;20.02;;
44704;SDS011;30431;48.520;9.046;2024-03-08T01:36:47;28.05;;;20.27;;
44704;SDS011;30431;48.520;9.046;2024-03-08T01:39:14;31.25;;;20.95;;
44704;SDS011;30431;48.520;9.046;2024-03-08T01:41:42;33.03;;;22.65;;
44704;SDS011;30431;48.520;9.046;2024-03-08T01:44:11;33.17;;;21.75;;
44704;SDS011;30431;48.520;9.046;2024-03-08T01:46:44;31.73;;;21.20;;
44704;SDS011;30431;48.520;9.046;2024-03-08T01:49:12;28.88;;;20.42;;
44704;SDS011;30431;48.520;9.046;2024-03-08T01:51:44;31.75;;;22.40;;
44704;SDS011;30431;48.520;9.046;2024-03-08T01:54:11;28.25;;;20.67;;
44704;SDS011;30431;48.520;9.046;2024-03-08T01:56:40;32.05;;;21.13;;
44704;SDS011;30431;48.520;9.046;2024-03-08T01:59:09;30.65;;;19.60;;
44704;SDS011;30431;48.520;9.046;2024-03-08T02:01:39;30.08;;;20.17;;
44704;SDS011;30431;48.520;9.046;2024-03-08T02:04:06;27.35;;;19.95;;
44704;SDS011;30431;48.520;9.046;2024-03-08T02:06:33;28.55;;;19.95;;
44704;SDS011;30431;48.520;9.046;2024-03-08T02:09:04;28.77;;;20.15;;
44704;SDS011;30431;48.520;9.046;2024-03-08T02:11:34;31.80;;;21.45;;
44704;SDS011;30431;48.520;9.046;2024-03-08T02:14:04;32.72;;;21.45;;
44704;SDS011;30431;48.520;9.046;2024-03-08T02:16:33;33.08;;;22.70;;
44704;SDS011;30431;48.520;9.046;2024-03-08T02:19:02;28.70;;;20.27;;
44704;SDS011;30431;48.520;9.046;2024-03-08T02:21:29;34.72;;;21.50;;
44704;SDS011;30431;48.520;9.046;2024-03-08T02:23:57;33.22;;;21.38;;
44704;SDS011;30431;48.520;9.046;2024-03-08T02:26:30;31.98;;;21.20;;
44704;SDS011;30431;48.520;9.046;2024-03-08T02:28:57;30.63;;;21.38;;
44704;SDS011;30431;48.520;9.046;2024-03-08T02:31:24;34.97;;;21.40;;
44704;SDS011;30431;48.520;9.046;2024-03-08T02:33:51;31.63;;;20.40;;
44704;SDS011;30431;48.520;9.046;2024-03-08T02:36:18;29.58;;;20.70;;
44704;SDS011;30431;48.520;9.046;2024-03-08T02:43:39;31.58;;;19.25;;
44704;SDS011;30431;48.520;9.046;2024-03-08T02:46:09;28.80;;;20.05;;
44704;SDS011;30431;48.520;9.046;2024-03-08T02:51:06;26.70;;;19.00;;
44704;SDS011;30431;48.520;9.046;2024-03-08T02:53:33;30.33;;;20.05;;
44704;SDS011;30431;48.520;9.046;2024-03-08T02:56:01;29.73;;;20.30;;
44704;SDS011;30431;48.520;9.046;2024-03-08T02:58:28;29.13;;;19.65;;
44704;SDS011;30431;48.520;9.046;2024-03-08T03:00:55;30.90;;;20.38;;
44704;SDS011;30431;48.520;9.046;2024-03-08T03:03:24;28.10;;;20.17;;
44704;SDS011;30431;48.520;9.046;2024-03-08T03:05:51;30.08;;;20.55;;
44704;SDS011;30431;48.520;9.046;2024-03-08T03:08:18;30.75;;;20.75;;
44704;SDS011;30431;48.520;9.046;2024-03-08T03:10:46;29.88;;;20.83;;
44704;SDS011;30431;48.520;9.046;2024-03-08T03:13:13;27.98;;;19.13;;
44704;SDS011;30431;48.520;9.046;2024-03-08T03:15:45;27.55;;;20.08;;
44704;SDS011;30431;48.520;9.046;2024-03-08T03:18:13;31.35;;;21.30;;
44704;SDS011;30431;48.520;9.046;2024-03-08T03:20:44;31.00;;;19.50;;
44704;SDS011;30431;48.520;9.046;2024-03-08T03:23:11;27.63;;;20.00;;
44704;SDS011;30431;48.520;9.046;2024-03-08T03:25:42;28.73;;;20.23;;
44704;SDS011;30431;48.520;9.046;2024-03-08T03:28:09;30.85;;;20.48;;
44704;SDS011;30431;48.520;9.046;2024-03-08T03:30:39;29.00;;;19.98;;
44704;SDS011;30431;48.520;9.046;2024-03-08T03:33:10;31.70;;;19.90;;
44704;SDS011;30431;48.520;9.046;2024-03-08T03:35:39;29.13;;;19.25;;
44704;SDS011;30431;48.520;9.046;2024-03-08T03:38:08;27.58;;;19.52;;
44704;SDS011;30431;48.520;9.046;2024-03-08T03:40:37;31.33;;;20.67;;
44704;SDS011;30431;48.520;9.046;2024-03-08T03:43:08;29.83;;;19.92;;
44704;SDS011;30431;48.520;9.046;2024-03-08T03:45:38;30.67;;;20.77;;
44704;SDS011;30431;48.520;9.046;2024-03-08T03:48:13;29.70;;;19.10;;
44704;SDS011;30431;48.520;9.046;2024-03-08T03:50:40;29.13;;;20.58;;
44704;SDS011;30431;48.520;9.046;2024-03-08T03:53:08;27.15;;;18.98;;
44704;SDS011;30431;48.520;9.046;2024-03-08T03:55:39;27.55;;;20.00;;
44704;SDS011;30431;48.520;9.046;2024-03-08T03:58:07;33.15;;;20.05;;
44704;SDS011;30431;48.520;9.046;2024-03-08T04:00:40;30.08;;;20.92;;
44704;SDS011;30431;48.520;9.046;2024-03-08T04:03:07;29.95;;;20.17;;
44704;SDS011;30431;48.520;9.046;2024-03-08T04:05:35;29.30;;;19.33;;
44704;SDS011;30431;48.520;9.046;2024-03-08T04:08:04;31.98;;;20.00;;
44704;SDS011;30431;48.520;9.046;2024-03-08T04:10:32;30.30;;;19.67;;
44704;SDS011;30431;48.520;9.046;2024-03-08T04:12:59;28.85;;;19.13;;
44704;SDS011;30431;48.520;9.046;2024-03-08T04:15:26;31.80;;;20.40;;
44704;SDS011;30431;48.520;9.046;2024-03-08T04:17:53;29.63;;;20.08;;
44704;SDS011;30431;48.520;9.046;2024-03-08T04:20:21;28.98;;;19.05;;
44704;SDS011;30431;48.520;9.046;2024-03-08T04:22:48;31.55;;;20.60;;
44704;SDS011;30431;48.520;9.046;2024-03-08T04:25:16;32.65;;;20.98;;
44704;SDS011;30431;48.520;9.046;2024-03-08T04:27:43;31.02;;;20.33;;
44704;SDS011;30431;48.520;9.046;2024-03-08T04:30:11;31.90;;;20.20;;
44704;SDS011;30431;48.520;9.046;2024-03-08T04:32:39;32.63;;;20.00;;
44704;SDS011;30431;48.520;9.046;2024-03-08T04:35:10;32.95;;;20.38;;
44704;SDS011;30431;48.520;9.046;2024-03-08T04:37:41;32.35;;;20.42;;
44704;SDS011;30431;48.520;9.046;2024-03-08T04:40:08;31.42;;;19.70;;
44704;SDS011;30431;48.520;9.046;2024-03-08T04:42:35;31.33;;;19.63;;
44704;SDS011;30431;48.520;9.046;2024-03-08T04:45:06;29.33;;;19.92;;
44704;SDS011;30431;48.520;9.046;2024-03-08T04:47:36;28.90;;;19.80;;
44704;SDS011;30431;48.520;9.046;2024-03-08T04:50:03;31.33;;;19.75;;
44704;SDS011;30431;48.520;9.046;2024-03-08T04:52:31;30.60;;;19.48;;
44704;SDS011;30431;48.520;9.046;2024-03-08T04:54:58;28.77;;;19.55;;
44704;SDS011;30431;48.520;9.046;2024-03-08T04:57:25;26.45;;;18.95;;
44704;SDS011;30431;48.520;9.046;2024-03-08T05:02:19;28.58;;;19.02;;
44704;SDS011;30431;48.520;9.046;2024-03-08T05:04:49;28.17;;;19.23;;
44704;SDS011;30431;48.520;9.046;2024-03-08T05:07:17;27.95;;;18.75;;
44704;SDS011;30431;48.520;9.046;2024-03-08T05:09:45;28.23;;;18.50;;
44704;SDS011;30431;48.520;9.046;2024-03-08T05:12:18;31.23;;;19.48;;
44704;SDS011;30431;48.520;9.046;2024-03-08T05:14:46;30.83;;;19.13;;
44704;SDS011;30431;48.520;9.046;2024-03-08T05:17:16;29.25;;;19.10;;
44704;SDS011;30431;48.520;9.046;2024-03-08T05:19:44;30.73;;;20.58;;
44704;SDS011;30431;48.520;9.046;2024-03-08T05:22:11;31.30;;;20.73;;
44704;SDS011;30431;48.520;9.046;2024-03-08T05:24:38;30.63;;;19.60;;
44704;SDS011;30431;48.520;9.046;2024-03-08T05:27:05;28.50;;;19.60;;
44704;SDS011;30431;48.520;9.046;2024-03-08T05:29:33;30.92;;;20.73;;
44704;SDS011;30431;48.520;9.046;2024-03-08T05:32:04;31.08;;;20.67;;
44704;SDS011;30431;48.520;9.046;2024-03-08T05:34:33;33.05;;;21.65;;
44704;SDS011;30431;48.520;9.046;2024-03-08T05:37:00;29.48;;;21.00;;
44704;SDS011;30431;48.520;9.046;2024-03-08T05:39:29;30.50;;;19.77;;
44704;SDS011;30431;48.520;9.046;2024-03-08T05:41:56;34.17;;;21.67;;
44704;SDS011;30431;48.520;9.046;2024-03-08T05:44:23;29.88;;;20.63;;
44704;SDS011;30431;48.520;9.046;2024-03-08T05:46:50;28.17;;;19.02;;
44704;SDS011;30431;48.520;9.046;2024-03-08T05:49:17;27.80;;;18.98;;
44704;SDS011;30431;48.520;9.046;2024-03-08T05:51:44;28.80;;;19.20;;
44704;SDS011;30431;48.520;9.046;2024-03-08T05:54:14;26.73;;;18.27;;
44704;SDS011;30431;48.520;9.046;2024-03-08T05:56:45;26.88;;;19.17;;
44704;SDS011;30431;48.520;9.046;2024-03-08T05:59:14;29.50;;;20.35;;
44704;SDS011;30431;48.520;9.046;2024-03-08T06:01:42;28.55;;;19.77;;
44704;SDS011;30431;48.520;9.046;2024-03-08T06:06:40;27.48;;;18.88;;
44704;SDS011;30431;48.520;9.046;2024-03-08T06:09:12;33.05;;;20.55;;
44704;SDS011;30431;48.520;9.046;2024-03-08T06:11:52;30.67;;;21.20;;
44704;SDS011;30431;48.520;9.046;2024-03-08T06:14:21;28.10;;;20.30;;
44704;SDS011;30431;48.520;9.046;2024-03-08T06:16:48;29.35;;;19.88;;
44704;SDS011;30431;48.520;9.046;2024-03-08T06:19:16;28.73;;;18.92;;
44704;SDS011;30431;48.520;9.046;2024-03-08T06:21:43;26.75;;;17.58;;
44704;SDS011;30431;48.520;9.046;2024-03-08T06:24:11;26.83;;;17.83;;
44704;SDS011;30431;48.520;9.046;2024-03-08T06:26:38;26.52;;;17.65;;
44704;SDS011;30431;48.520;9.046;2024-03-08T06:29:05;26.13;;;18.15;;
44704;SDS011;30431;48.520;9.046;2024-03-08T06:31:36;26.70;;;18.48;;
44704;SDS011;30431;48.520;9.046;2024-03-08T06:34:09;25.90;;;16.98;;
44704;SDS011;30431;48.520;9.046;2024-03-08T06:36:38;27.02;;;17.65;;
44704;SDS011;30431;48.520;9.046;2024-03-08T06:39:06;24.67;;;16.88;;
44704;SDS011;30431;48.520;9.046;2024-03-08T06:41:38;28.48;;;18.65;;
44704;SDS011;30431;48.520;9.046;2024-03-08T06:44:11;27.08;;;18.30;;
44704;SDS011;30431;48.520;9.046;2024-03-08T06:46:38;24.90;;;18.27;;
44704;SDS011;30431;48.520;9.046;2024-03-08T06:49:05;27.05;;;17.83;;
44704;SDS011;30431;48.520;9.046;2024-03-08T06:51:33;27.05;;;18.60;;
44704;SDS011;30431;48.520;9.046;2024-03-08T06:54:00;26.02;;;17.70;;
44704;SDS011;30431;48.520;9.046;2024-03-08T06:56:29;26.83;;;17.65;;
44704;SDS011;30431;48.520;9.046;2024-03-08T06:58:56;25.60;;;16.67;;
44704;SDS011;30431;48.520;9.046;2024-03-08T07:01:23;26.17;;;17.65;;
44704;SDS011;30431;48.520;9.046;2024-03-08T07:03:58;22.15;;;16.00;;
44704;SDS011;30431;48.520;9.046;2024-03-08T07:06:26;25.00;;;17.13;;
44704;SDS011;30431;48.520;9.046;2024-03-08T07:08:53;25.58;;;17.98;;
44704;SDS011;30431;48.520;9.046;2024-03-08T07:11:19;26.33;;;18.30;;
44704;SDS011;30431;48.520;9.046;2024-03-08T07:13:47;24.70;;;16.95;;
44704;SDS011;30431;48.520;9.046;2024-03-08T07:16:16;26.02;;;16.98;;
44704;SDS011;30431;48.520;9.046;2024-03-08T07:18:43;26.15;;;17.15;;
44704;SDS011;30431;48.520;9.046;2024-03-08T07:21:10;26.02;;;17.90;;
44704;SDS011;30431;48.520;9.046;2024-03-08T07:23:38;24.23;;;17.50;;
44704;SDS011;30431;48.520;9.046;2024-03-08T07:26:29;25.00;;;17.08;;
44704;SDS011;30431;48.520;9.046;2024-03-08T07:29:00;22.05;;;16.58;;
44704;SDS011;30431;48.520;9.046;2024-03-08T07:31:28;24.75;;;17.80;;
44704;SDS011;30431;48.520;9.046;2024-03-08T07:34:03;23.52;;;17.10;;
44704;SDS011;30431;48.520;9.046;2024-03-08T07:36:34;24.30;;;16.73;;
44704;SDS011;30431;48.520;9.046;2024-03-08T07:39:04;23.67;;;17.25;;
44704;SDS011;30431;48.520;9.046;2024-03-08T07:41:38;25.02;;;17.15;;
44704;SDS011;30431;48.520;9.046;2024-03-08T07:44:09;23.83;;;16.58;;
44704;SDS011;30431;48.520;9.046;2024-03-08T07:46:40;26.25;;;17.48;;
44704;SDS011;30431;48.520;9.046;2024-03-08T07:49:08;23.75;;;16.42;;
44704;SDS011;30431;48.520;9.046;2024-03-08T07:51:37;24.40;;;17.05;;
44704;SDS011;30431;48.520;9.046;2024-03-08T07:56:35;24.10;;;16.02;;
44704;SDS011;30431;48.520;9.046;2024-03-08T07:59:04;27.88;;;18.48;;
44704;SDS011;30431;48.520;9.046;2024-03-08T08:01:31;23.23;;;16.92;;
44704;SDS011;30431;48.520;9.046;2024-03-08T08:04:00;25.08;;;17.23;;
44704;SDS011;30431;48.520;9.046;2024-03-08T08:06:27;22.95;;;16.42;;
44704;SDS011;30431;48.520;9.046;2024-03-08T08:08:58;22.90;;;17.15;;
44704;SDS011;30431;48.520;9.046;2024-03-08T08:11:26;24.70;;;16.25;;
44704;SDS011;30431;48.520;9.046;2024-03-08T08:13:57;24.33;;;15.70;;
44704;SDS011;30431;48.520;9.046;2024-03-08T08:16:35;22.90;;;16.65;;
44704;SDS011;30431;48.520;9.046;2024-03-08T08:19:03;21.58;;;16.10;;
44704;SDS011;30431;48.520;9.046;2024-03-08T08:21:37;24.33;;;16.58;;
44704;SDS011;30431;48.520;9.046;2024-03-08T08:24:05;24.23;;;15.73;;
44704;SDS011;30431;48.520;9.046;2024-03-08T08:26:33;19.27;;;14.85;;
44704;SDS011;30431;48.520;9.046;2024-03-08T08:29:04;22.95;;;16.63;;
44704;SDS011;30431;48.520;9.046;2024-03-08T08:31:34;21.40;;;15.73;;
44704;SDS011;30431;48.520;9.046;2024-03-08T08:34:01;23.05;;;17.55;;
44704;SDS011;30431;48.520;9.046;2024-03-08T08:36:29;22.80;;;16.40;;
44704;SDS011;30431;48.520;9.046;2024-03-08T08:38:57;20.20;;;15.13;;
44704;SDS011;30431;48.520;9.046;2024-03-08T08:41:25;22.48;;;15.50;;
44704;SDS011;30431;48.520;9.046;2024-03-08T08:43:53;20.23;;;15.57;;
44704;SDS011;30431;48.520;9.046;2024-03-08T08:46:36;21.17;;;15.55;;
44704;SDS011;30431;48.520;9.046;2024-03-08T08:49:07;22.10;;;15.95;;
44704;SDS011;30431;48.520;9.046;2024-03-08T08:51:37;20.80;;;15.60;;
44704;SDS011;30431;48.520;9.046;2024-03-08T08:54:05;24.45;;;16.15;;
44704;SDS011;30431;48.520;9.046;2024-03-08T08:56:37;21.10;;;15.48;;
44704;SDS011;30431;48.520;9.046;2024-03-08T08:59:05;20.58;;;15.10;;
44704;SDS011;30431;48.520;9.046;2024-03-08T09:01:35;20.90;;;14.82;;
44704;SDS011;30431;48.520;9.046;2024-03-08T09:04:02;18.67;;;14.65;;
44704;SDS011;30431;48.520;9.046;2024-03-08T09:08:56;19.90;;;14.25;;
44704;SDS011;30431;48.520;9.046;2024-03-08T09:11:24;19.60;;;14.35;;
44704;SDS011;30431;48.520;9.046;2024-03-08T09:13:56;21.45;;;15.32;;
44704;SDS011;30431;48.520;9.046;2024-03-08T09:16:26;19.70;;;15.88;;
44704;SDS011;30431;48.520;9.046;2024-03-08T09:18:55;19.30;;;14.65;;
44704;SDS011;30431;48.520;9.046;2024-03-08T09:21:24;20.52;;;15.57;;
44704;SDS011;30431;48.520;9.046;2024-03-08T09:23:51;21.33;;;15.70;;
44704;SDS011;30431;48.520;9.046;2024-03-08T09:26:18;20.67;;;15.30;;
44704;SDS011;30431;48.520;9.046;2024-03-08T09:28:57;18.63;;;14.20;;
44704;SDS011;30431;48.520;9.046;2024-03-08T09:31:24;19.60;;;14.75;;
44704;SDS011;30431;48.520;9.046;2024-03-08T09:33:52;19.70;;;15.15;;
44704;SDS011;30431;48.520;9.046;2024-03-08T09:36:21;17.95;;;13.77;;
44704;SDS011;30431;48.520;9.046;2024-03-08T09:38:49;24.27;;;18.60;;
44704;SDS011;30431;48.520;9.046;2024-03-08T09:43:44;19.33;;;13.55;;
44704;SDS011;30431;48.520;9.046;2024-03-08T09:46:14;21.65;;;14.75;;
44704;SDS011;30431;48.520;9.046;2024-03-08T09:48:45;22.40;;;14.52;;
44704;SDS011;30431;48.520;9.046;2024-03-08T09:51:14;20.85;;;15.18;;
44704;SDS011;30431;48.520;9.046;2024-03-08T09:53:46;18.08;;;14.40;;
44704;SDS011;30431;48.520;9.046;2024-03-08T09:56:13;18.60;;;14.65;;
44704;SDS011;30431;48.520;9.046;2024-03-08T09:58:40;19.48;;;15.13;;
44704;SDS011;30431;48.520;9.046;2024-03-08T10:01:42;20.23;;;15.35;;
44704;SDS011;30431;48.520;9.046;2024-03-08T10:04:10;20.05;;;13.60;;
44704;SDS011;30431;48.520;9.046;2024-03-08T10:06:40;16.55;;;12.93;;
44704;SDS011;30431;48.520;9.046;2024-03-08T10:09:07;19.15;;;12.63;;
44704;SDS011;30431;48.520;9.046;2024-03-08T10:14:01;18.88;;;13.38;;
44704;SDS011;30431;48.520;9.046;2024-03-08T10:16:28;18.35;;;13.27;;
44704;SDS011;30431;48.520;9.046;2024-03-08T10:18:58;18.50;;;13.95;;
44704;SDS011;30431;48.520;9.046;2024-03-08T10:21:29;18.27;;;13.18;;
44704;SDS011;30431;48.520;9.046;2024-03-08T10:23:56;21.48;;;14.93;;
44704;SDS011;30431;48.520;9.046;2024-03-08T10:26:24;17.40;;;12.75;;
44704;SDS011;30431;48.520;9.046;2024-03-08T10:28:52;17.27;;;13.05;;
44704;SDS011;30431;48.520;9.046;2024-03-08T10:31:19;15.63;;;12.15;;
44704;SDS011;30431;48.520;9.046;2024-03-08T10:33:49;17.17;;;12.80;;
44704;SDS011;30431;48.520;9.046;2024-03-08T10:36:16;16.67;;;12.85;;
44704;SDS011;30431;48.520;9.046;2024-03-08T10:38:45;16.77;;;12.93;;
44704;SDS011;30431;48.520;9.046;2024-03-08T10:41:15;17.27;;;12.55;;
44704;SDS011;30431;48.520;9.046;2024-03-08T10:49:08;16.75;;;12.80;;
44704;SDS011;30431;48.520;9.046;2024-03-08T10:51:42;18.00;;;13.02;;
44704;SDS011;30431;48.520;9.046;2024-03-08T10:54:10;15.73;;;12.02;;
44704;SDS011;30431;48.520;9.046;2024-03-08T10:56:38;17.13;;;13.13;;
44704;SDS011;30431;48.520;9.046;2024-03-08T10:59:09;17.60;;;12.35;;
44704;SDS011;30431;48.520;9.046;2024-03-08T11:01:40;16.75;;;12.95;;
44704;SDS011;30431;48.520;9.046;2024-03-08T11:04:07;14.65;;;12.00;;
44704;SDS011;30431;48.520;9.046;2024-03-08T11:14:52;18.10;;;12.43;;
44704;SDS011;30431;48.520;9.046;2024-03-08T11:25:31;21.83;;;16.10;;
44704;SDS011;30431;48.520;9.046;2024-03-08T11:28:18;19.48;;;13.98;;
44704;SDS011;30431;48.520;9.046;2024-03-08T11:33:31;21.50;;;15.03;;
44704;SDS011;30431;48.520;9.046;2024-03-08T11:36:11;18.55;;;14.10;;
44704;SDS011;30431;48.520;9.046;2024-03-08T11:38:46;15.80;;;12.20;;
44704;SDS011;30431;48.520;9.046;2024-03-08T11:41:21;18.95;;;13.38;;
44704;SDS011;30431;48.520;9.046;2024-03-08T11:44:02;17.50;;;12.95;;
44704;SDS011;30431;48.520;9.046;2024-03-08T11:46:35;17.45;;;13.18;;
44704;SDS011;30431;48.520;9.046;2024-03-08T11:49:02;16.77;;;13.20;;
44704;SDS011;30431;48.520;9.046;2024-03-08T11:53:58;19.55;;;13.35;;
44704;SDS011;30431;48.520;9.046;2024-03-08T11:58:56;17.13;;;13.20;;
44704;SDS011;30431;48.520;9.046;2024-03-08T12:01:26;18.55;;;13.60;;
44704;SDS011;30431;48.520;9.046;2024-03-08T12:03:54;19.48;;;13.82;;
44704;SDS011;30431;48.520;9.046;2024-03-08T12:06:26;17.23;;;13.10;;
44704;SDS011;30431;48.520;9.046;2024-03-08T12:09:09;16.80;;;13.48;;
44704;SDS011;30431;48.520;9.046;2024-03-08T12:11:39;19.85;;;13.50;;
44704;SDS011;30431;48.520;9.046;2024-03-08T12:14:07;17.73;;;13.82;;
44704;SDS011;30431;48.520;9.046;2024-03-08T12:16:36;19.00;;;13.52;;
44704;SDS011;30431;48.520;9.046;2024-03-08T12:19:05;17.98;;;13.88;;
44704;SDS011;30431;48.520;9.046;2024-03-08T12:21:35;17.48;;;13.60;;
44704;SDS011;30431;48.520;9.046;2024-03-08T12:24:06;20.70;;;13.95;;
44704;SDS011;30431;48.520;9.046;2024-03-08T12:26:36;21.02;;;14.27;;
44704;SDS011;30431;48.520;9.046;2024-03-08T12:31:51;20.88;;;14.00;;
44704;SDS011;30431;48.520;9.046;2024-03-08T12:34:21;17.85;;;13.35;;
44704;SDS011;30431;48.520;9.046;2024-03-08T12:36:55;24.63;;;14.27;;
44704;SDS011;30431;48.520;9.046;2024-03-08T12:39:29;20.02;;;13.52;;
44704;SDS011;30431;48.520;9.046;2024-03-08T12:41:56;21.92;;;14.63;;
44704;SDS011;30431;48.520;9.046;2024-03-08T12:44:27;19.60;;;14.25;;
44704;SDS011;30431;48.520;9.046;2024-03-08T12:46:56;18.08;;;13.85;;
44704;SDS011;30431;48.520;9.046;2024-03-08T12:49:25;18.23;;;14.23;;
44704;SDS011;30431;48.520;9.046;2024-03-08T12:51:53;19.23;;;14.18;;
44704;SDS011;30431;48.520;9.046;2024-03-08T12:54:20;19.40;;;14.40;;
44704;SDS011;30431;48.520;9.046;2024-03-08T12:56:50;18.48;;;14.30;;
44704;SDS011;30431;48.520;9.046;2024-03-08T12:59:22;19.52;;;14.20;;
44704;SDS011;30431;48.520;9.046;2024-03-08T13:01:53;18.55;;;14.25;;
44704;SDS011;30431;48.520;9.046;2024-03-08T13:07:22;20.48;;;14.10;;
44704;SDS011;30431;48.520;9.046;2024-03-08T13:09:50;17.95;;;14.10;;
44704;SDS011;30431;48.520;9.046;2024-03-08T13:12:19;19.83;;;14.52;;
44704;SDS011;30431;48.520;9.046;2024-03-08T13:14:47;19.90;;;14.85;;
44704;SDS011;30431;48.520;9.046;2024-03-08T13:17:14;19.48;;;14.63;;
44704;SDS011;30431;48.520;9.046;2024-03-08T13:19:44;22.48;;;14.38;;
44704;SDS011;30431;48.520;9.046;2024-03-08T13:24:44;19.80;;;14.32;;
44704;SDS011;30431;48.520;9.046;2024-03-08T13:27:11;21.35;;;14.48;;
44704;SDS011;30431;48.520;9.046;2024-03-08T13:29:48;18.90;;;14.65;;
44704;SDS011;30431;48.520;9.046;2024-03-08T13:34:43;20.13;;;14.68;;
44704;SDS011;30431;48.520;9.046;2024-03-08T13:37:13;21.52;;;15.48;;
44704;SDS011;30431;48.520;9.046;2024-03-08T13:39:42;21.42;;;15.55;;
44704;SDS011;30431;48.520;9.046;2024-03-08T13:42:12;20.63;;;14.70;;
44704;SDS011;30431;48.520;9.046;2024-03-08T13:44:44;18.20;;;13.68;;
44704;SDS011;30431;48.520;9.046;2024-03-08T13:47:13;23.10;;;14.48;;
44704;SDS011;30431;48.520;9.046;2024-03-08T13:49:44;19.48;;;14.02;;
44704;SDS011;30431;48.520;9.046;2024-03-08T13:52:12;19.95;;;14.85;;
44704;SDS011;30431;48.520;9.046;2024-03-08T13:55:02;21.23;;;14.77;;
44704;SDS011;30431;48.520;9.046;2024-03-08T13:57:29;21.92;;;14.73;;
44704;SDS011;30431;48.520;9.046;2024-03-08T13:59:56;20.60;;;14.00;;
44704;SDS011;30431;48.520;9.046;2024-03-08T14:02:23;21.50;;;14.90;;
44704;SDS011;30431;48.520;9.046;2024-03-08T14:04:54;20.83;;;14.52;;
44704;SDS011;30431;48.520;9.046;2024-03-08T14:07:22;18.88;;;14.55;;
44704;SDS011;30431;48.520;9.046;2024-03-08T14:09:52;18.17;;;14.23;;
44704;SDS011;30431;48.520;9.046;2024-03-08T14:14:48;22.02;;;13.60;;
44704;SDS011;30431;48.520;9.046;2024-03-08T14:17:17;20.38;;;14.85;;
44704;SDS011;30431;48.520;9.046;2024-03-08T14:19:50;20.02;;;13.30;;
44704;SDS011;30431;48.520;9.046;2024-03-08T14:24:58;17.38;;;13.57;;
44704;SDS011;30431;48.520;9.046;2024-03-08T14:27:50;17.33;;;13.20;;
44704;SDS011;30431;48.520;9.046;2024-03-08T14:30:25;20.40;;;13.93;;
44704;SDS011;30431;48.520;9.046;2024-03-08T14:33:21;17.83;;;12.60;;
44704;SDS011;30431;48.520;9.046;2024-03-08T14:35:48;19.92;;;13.43;;
44704;SDS011;30431;48.520;9.046;2024-03-08T14:38:16;19.15;;;13.55;;
44704;SDS011;30431;48.520;9.046;2024-03-08T14:40:44;17.23;;;12.52;;
44704;SDS011;30431;48.520;9.046;2024-03-08T14:43:17;17.42;;;13.10;;
44704;SDS011;30431;48.520;9.046;2024-03-08T14:45:46;19.83;;;13.93;;
44704;SDS011;30431;48.520;9.046;2024-03-08T14:50:41;19.88;;;13.40;;
44704;SDS011;30431;48.520;9.046;2024-03-08T14:53:10;16.60;;;12.75;;
44704;SDS011;30431;48.520;9.046;2024-03-08T14:55:39;18.00;;;12.68;;
44704;SDS011;30431;48.520;9.046;2024-03-08T14:58:06;17.85;;;13.05;;
44704;SDS011;30431;48.520;9.046;2024-03-08T15:00:33;18.50;;;13.55;;
44704;SDS011;30431;48.520;9.046;2024-03-08T15:03:01;20.52;;;14.18;;
44704;SDS011;30431;48.520;9.046;2024-03-08T15:05:36;17.58;;;13.75;;
44704;SDS011;30431;48.520;9.046;2024-03-08T15:08:08;18.52;;;13.65;;
44704;SDS011;30431;48.520;9.046;2024-03-08T15:10:46;16.95;;;13.25;;
44704;SDS011;30431;48.520;9.046;2024-03-08T15:13:15;16.23;;;13.13;;
44704;SDS011;30431;48.520;9.046;2024-03-08T15:15:49;17.83;;;13.00;;
44704;SDS011;30431;48.520;9.046;2024-03-08T15:18:24;16.85;;;13.30;;
44704;SDS011;30431;48.520;9.046;2024-03-08T15:20:54;19.90;;;13.77;;
44704;SDS011;30431;48.520;9.046;2024-03-08T15:23:22;19.85;;;14.38;;
44704;SDS011;30431;48.520;9.046;2024-03-08T15:25:49;19.50;;;14.35;;
44704;SDS011;30431;48.520;9.046;2024-03-08T15:28:18;17.05;;;13.13;;
44704;SDS011;30431;48.520;9.046;2024-03-08T15:30:53;22.40;;;13.90;;
44704;SDS011;30431;48.520;9.046;2024-03-08T15:33:24;19.88;;;14.07;;
44704;SDS011;30431;48.520;9.046;2024-03-08T15:35:53;17.45;;;13.25;;
44704;SDS011;30431;48.520;9.046;2024-03-08T15:38:35;20.85;;;14.07;;
44704;SDS011;30431;48.520;9.046;2024-03-08T15:41:06;20.90;;;13.98;;
44704;SDS011;30431;48.520;9.046;2024-03-08T15:43:39;19.52;;;13.38;;
44704;SDS011;30431;48.520;9.046;2024-03-08T15:46:10;17.08;;;12.68;;